Time;durP1;ratioP1;P1;durP2;ratioP2;P2;SDS_P1;SDS_P2;PMS_P1;PMS_P2;Temp;Humidity;BMP_temperature;BMP_pressure;BME280_temperature;BME280_humidity;BME280_pressure;Samples;Min_cycle;Max_cycle;Signal;HPM_P1;HPM_P2
2022/04/30 00:02:07;;;;;;;2.28;1.83;;;9.50;92.50;;;;;;7372257;19;20341;-76
2022/04/30 00:04:36;;;;;;;2.17;1.98;;;9.50;92.40;;;;;;7377195;19;20345;-77
2022/04/30 00:07:02;;;;;;;2.55;2.00;;;9.40;93.10;;;;;;7377362;19;20354;-75
2022/04/30 00:09:28;;;;;;;1.88;1.70;;;9.40;93.20;;;;;;7373238;19;20352;-75
2022/04/30 00:11:54;;;;;;;2.65;1.80;;;9.40;93.80;;;;;;7372111;19;20962;-75
2022/04/30 00:14:23;;;;;;;2.38;2.00;;;9.30;93.80;;;;;;7375138;19;21177;-78
2022/04/30 00:16:49;;;;;;;2.17;1.97;;;9.30;94.70;;;;;;7376731;19;20317;-74
2022/04/30 00:19:15;;;;;;;2.25;2.00;;;9.30;94.30;;;;;;7374809;19;20913;-76
2022/04/30 00:21:41;;;;;;;2.30;2.05;;;9.20;94.90;;;;;;7373324;19;20332;-78
2022/04/30 00:24:07;;;;;;;3.33;1.80;;;9.20;94.50;;;;;;7375129;19;21704;-75
2022/04/30 00:26:33;;;;;;;2.92;2.17;;;9.20;95.50;;;;;;7376519;19;20316;-77
2022/04/30 00:28:58;;;;;;;3.03;1.90;;;9.20;96.00;;;;;;7375601;19;20846;-76
2022/04/30 00:31:25;;;;;;;3.17;2.00;;;9.10;96.00;;;;;;7368093;19;20341;-75
2022/04/30 00:33:51;;;;;;;2.65;2.10;;;9.10;96.70;;;;;;7376234;19;20333;-75
2022/04/30 00:36:16;;;;;;;2.10;1.67;;;9.10;97.10;;;;;;7373887;19;20352;-78
2022/04/30 00:38:42;;;;;;;3.95;2.28;;;9.10;97.10;;;;;;7377112;19;20336;-75
2022/04/30 00:41:08;;;;;;;3.30;2.10;;;9.10;97.80;;;;;;7368530;19;21278;-76
2022/04/30 00:43:47;;;;;;;2.88;2.08;;;9.00;97.50;;;;;;7371899;19;20348;-75
2022/04/30 00:46:15;;;;;;;2.17;1.97;;;9.00;98.50;;;;;;7374223;19;20400;-76
2022/04/30 00:48:41;;;;;;;1.95;1.73;;;9.10;99.70;;;;;;7376614;19;20439;-76
2022/04/30 00:51:14;;;;;;;2.03;1.70;;;8.90;99.60;;;;;;7364400;19;20345;-78
2022/04/30 00:53:44;;;;;;;3.08;1.98;;;8.90;98.80;;;;;;7374927;19;20357;-78
2022/04/30 00:56:11;;;;;;;2.42;2.17;;;8.90;98.60;;;;;;7374068;19;20348;-75
2022/04/30 00:58:38;;;;;;;4.88;2.08;;;8.90;99.10;;;;;;7374305;19;20354;-77
2022/04/30 01:01:04;;;;;;;2.63;2.17;;;8.90;99.50;;;;;;7364769;19;20360;-76
2022/04/30 01:03:47;;;;;;;4.70;2.20;;;8.80;99.90;;;;;;7270626;19;2004192;-79
2022/04/30 01:06:13;;;;;;;2.40;2.20;;;8.80;99.90;;;;;;7374124;19;20341;-77
2022/04/30 01:08:38;;;;;;;4.50;1.90;;;8.90;99.90;;;;;;7373051;19;20313;-76
2022/04/30 01:11:04;;;;;;;2.95;2.10;;;8.70;99.90;;;;;;7367594;19;20323;-75
2022/04/30 01:13:36;;;;;;;2.25;2.05;;;8.70;99.90;;;;;;7372863;19;20345;-75
2022/04/30 01:16:02;;;;;;;3.13;1.90;;;8.70;99.90;;;;;;7374774;19;20349;-74
2022/04/30 01:18:28;;;;;;;2.72;2.10;;;8.70;99.90;;;;;;7375439;19;20355;-75
2022/04/30 01:20:56;;;;;;;2.50;1.90;;;8.70;99.90;;;;;;7366875;19;20352;-76
2022/04/30 01:23:22;;;;;;;2.67;2.30;;;8.70;99.90;;;;;;7374027;19;20344;-78
2022/04/30 01:25:47;;;;;;;3.40;2.13;;;8.70;99.90;;;;;;7373233;19;20336;-75
2022/04/30 01:28:13;;;;;;;3.73;2.00;;;8.50;99.90;;;;;;7375733;19;20334;-75
2022/04/30 01:30:39;;;;;;;2.75;1.98;;;8.50;99.90;;;;;;7366723;19;20701;-75
2022/04/30 01:38:33;;;;;;;2.35;2.10;;;8.30;99.90;;;;;;7270783;19;2005150;-75
2022/04/30 01:40:59;;;;;;;2.80;2.10;;;8.30;99.90;;;;;;7367183;19;20331;-74
2022/04/30 01:43:25;;;;;;;2.22;2.03;;;8.30;99.90;;;;;;7373196;19;20450;-76
2022/04/30 01:45:50;;;;;;;2.17;1.98;;;8.30;99.90;;;;;;7369422;19;20356;-75
2022/04/30 01:48:16;;;;;;;2.53;2.23;;;8.30;99.90;;;;;;7376748;19;20650;-76
2022/04/30 01:50:42;;;;;;;3.00;2.30;;;8.30;99.90;;;;;;7368428;19;20945;-76
2022/04/30 01:53:08;;;;;;;3.30;2.27;;;8.20;99.90;;;;;;7373466;19;20416;-76
2022/04/30 01:55:34;;;;;;;3.45;2.20;;;8.20;99.90;;;;;;7373486;19;20400;-75
2022/04/30 01:58:03;;;;;;;3.13;2.30;;;8.30;99.90;;;;;;7369923;19;20359;-75
2022/04/30 02:00:29;;;;;;;2.28;2.08;;;8.20;99.90;;;;;;7368659;19;20350;-75
2022/04/30 02:02:55;;;;;;;2.80;2.33;;;8.20;99.90;;;;;;7370969;19;20364;-75
2022/04/30 02:05:21;;;;;;;2.97;2.00;;;8.30;99.90;;;;;;7369165;19;20348;-75
2022/04/30 02:07:49;;;;;;;3.58;2.30;;;8.10;99.90;;;;;;7374862;19;20337;-75
2022/04/30 02:10:15;;;;;;;2.97;2.00;;;8.10;99.90;;;;;;7369164;19;20357;-75
2022/04/30 02:12:41;;;;;;;2.75;2.17;;;8.10;99.90;;;;;;7368201;19;20331;-75
2022/04/30 02:15:08;;;;;;;9.03;2.40;;;8.10;99.90;;;;;;7370232;19;21329;-76
2022/04/30 02:17:36;;;;;;;2.87;2.20;;;8.20;99.90;;;;;;7374415;19;20337;-75
2022/04/30 02:22:46;;;;;;;3.08;2.30;;;8.10;99.90;;;;;;7268157;19;2004673;-75
2022/04/30 02:25:12;;;;;;;2.30;2.10;;;8.10;99.90;;;;;;7373095;19;20320;-75
2022/04/30 02:27:45;;;;;;;3.23;2.40;;;8.10;99.90;;;;;;7373323;19;20352;-77
2022/04/30 02:30:21;;;;;;;2.78;2.40;;;8.10;99.90;;;;;;7365818;19;20389;-75
2022/04/30 02:32:52;;;;;;;2.35;2.15;;;8.10;99.90;;;;;;7369260;19;20719;-75
2022/04/30 02:35:19;;;;;;;2.38;2.17;;;8.10;99.90;;;;;;7372125;19;20337;-75
2022/04/30 02:37:45;;;;;;;2.30;2.10;;;8.10;99.90;;;;;;7374440;19;20304;-75
2022/04/30 02:40:14;;;;;;;2.50;2.28;;;8.00;99.90;;;;;;7365655;19;20921;-75
2022/04/30 02:42:44;;;;;;;2.53;2.30;;;8.00;99.90;;;;;;7369708;19;21045;-75
2022/04/30 02:45:10;;;;;;;3.40;2.45;;;7.90;99.90;;;;;;7368878;19;20371;-76
2022/04/30 02:47:37;;;;;;;3.37;2.23;;;7.90;99.90;;;;;;7371829;19;20363;-75
2022/04/30 02:50:04;;;;;;;2.42;1.98;;;7.90;99.90;;;;;;7366318;19;20951;-76
2022/04/30 02:52:30;;;;;;;3.40;2.08;;;7.90;99.90;;;;;;7367575;19;20359;-74
2022/04/30 02:54:56;;;;;;;2.67;2.17;;;7.80;99.90;;;;;;7369789;19;21376;-75
2022/04/30 02:57:21;;;;;;;3.10;2.60;;;7.80;99.90;;;;;;7371964;19;20382;-80
2022/04/30 02:59:53;;;;;;;2.53;2.30;;;7.80;99.90;;;;;;7368785;19;20324;-74
2022/04/30 03:02:38;;;;;;;3.70;2.55;;;7.80;99.90;;;;;;7263890;19;2004820;-77
2022/04/30 03:05:05;;;;;;;4.18;2.60;;;7.70;99.90;;;;;;7366541;19;20320;-76
2022/04/30 03:07:31;;;;;;;3.90;2.42;;;7.70;99.90;;;;;;7371396;19;20340;-76
2022/04/30 03:09:56;;;;;;;3.95;2.47;;;7.70;99.90;;;;;;7371780;19;20697;-77
2022/04/30 03:12:22;;;;;;;3.67;2.40;;;7.60;99.90;;;;;;7361100;19;20336;-75
2022/04/30 03:14:48;;;;;;;3.00;2.40;;;7.80;99.90;;;;;;7367702;19;20385;-75
2022/04/30 03:22:42;;;;;;;3.17;2.50;;;7.60;99.90;;;;;;7378378;19;20379;-74
2022/04/30 03:25:07;;;;;;;2.60;2.40;;;7.60;99.90;;;;;;7375695;19;20363;-77
2022/04/30 03:27:34;;;;;;;4.53;2.65;;;7.50;99.90;;;;;;7380053;19;20357;-75
2022/04/30 03:29:59;;;;;;;3.70;2.50;;;7.40;99.90;;;;;;7372545;19;20356;-75
2022/04/30 03:32:25;;;;;;;3.00;2.50;;;7.40;99.90;;;;;;7375232;19;20369;-75
2022/04/30 03:34:51;;;;;;;2.72;2.50;;;7.30;99.90;;;;;;7373913;19;20396;-76
2022/04/30 03:37:18;;;;;;;2.58;2.33;;;7.30;99.90;;;;;;7378650;19;20362;-76
2022/04/30 03:39:43;;;;;;;3.20;2.40;;;7.30;99.90;;;;;;7374140;19;20443;-75
2022/04/30 03:42:09;;;;;;;3.57;2.53;;;7.30;99.90;;;;;;7375906;19;20471;-77
2022/04/30 03:44:34;;;;;;;4.47;2.60;;;7.30;99.90;;;;;;7377247;19;20328;-77
2022/04/30 03:47:00;;;;;;;3.00;2.70;;;7.30;99.90;;;;;;7378914;19;20353;-75
2022/04/30 03:49:26;;;;;;;3.63;2.35;;;7.30;99.90;;;;;;7377572;19;22430;-75
2022/04/30 03:51:54;;;;;;;3.20;2.47;;;7.30;99.90;;;;;;7375734;19;20365;-76
2022/04/30 03:54:19;;;;;;;2.65;2.38;;;7.40;99.90;;;;;;7377195;19;20870;-76
2022/04/30 03:56:45;;;;;;;3.70;2.50;;;7.40;99.90;;;;;;7375550;19;20348;-75
2022/04/30 03:59:10;;;;;;;4.05;2.60;;;7.30;99.90;;;;;;7375698;19;20749;-79
2022/04/30 04:01:37;;;;;;;2.75;2.40;;;7.30;99.90;;;;;;7374973;19;20356;-77
2022/04/30 04:04:03;;;;;;;2.95;2.35;;;7.20;99.90;;;;;;7375085;19;20374;-75
2022/04/30 04:06:29;;;;;;;3.22;2.42;;;7.20;99.90;;;;;;7377634;19;20316;-76
2022/04/30 04:08:55;;;;;;;3.35;2.50;;;7.20;99.90;;;;;;7377325;19;20324;-77
2022/04/30 04:11:23;;;;;;;4.18;2.50;;;7.10;99.90;;;;;;7372330;19;20419;-76
2022/04/30 04:19:26;;;;;;;4.53;3.03;;;7.20;99.90;;;;;;7375725;19;20348;-75
2022/04/30 04:21:51;;;;;;;4.00;2.95;;;7.20;99.90;;;;;;7368996;19;20344;-76
2022/04/30 04:27:01;;;;;;;3.28;2.80;;;7.20;99.90;;;;;;7275646;19;2004543;-76
2022/04/30 04:29:27;;;;;;;2.70;2.40;;;7.30;99.90;;;;;;7371904;19;20347;-75
2022/04/30 04:31:52;;;;;;;2.97;2.67;;;7.30;99.90;;;;;;7369679;19;20480;-75
2022/04/30 04:34:18;;;;;;;2.70;2.37;;;7.30;99.90;;;;;;7376179;19;20644;-74
2022/04/30 04:36:43;;;;;;;3.72;2.40;;;7.40;99.90;;;;;;7376286;19;20369;-75
2022/04/30 04:39:13;;;;;;;2.40;2.20;;;7.40;99.90;;;;;;7375646;19;20920;-75
2022/04/30 04:41:42;;;;;;;3.78;2.65;;;7.60;99.90;;;;;;7372996;19;20345;-76
2022/04/30 04:44:08;;;;;;;3.10;2.33;;;7.30;99.90;;;;;;7374944;19;20356;-75
2022/04/30 04:46:34;;;;;;;3.80;2.60;;;7.40;99.90;;;;;;7375456;19;20336;-75
2022/04/30 04:49:00;;;;;;;4.35;2.70;;;7.40;99.90;;;;;;7375326;19;20345;-75
2022/04/30 04:51:27;;;;;;;4.80;2.97;;;7.60;99.90;;;;;;7371692;19;21011;-75
2022/04/30 04:53:52;;;;;;;3.00;2.58;;;7.60;99.90;;;;;;7376011;19;20369;-75
2022/04/30 04:56:18;;;;;;;3.90;3.00;;;7.60;99.90;;;;;;7375621;19;20312;-75
2022/04/30 04:58:43;;;;;;;3.85;2.60;;;7.80;99.90;;;;;;7373847;19;20369;-76
2022/04/30 05:01:09;;;;;;;3.87;2.97;;;7.70;99.90;;;;;;7368670;19;20351;-76
2022/04/30 05:03:35;;;;;;;3.70;3.20;;;7.90;99.90;;;;;;7375234;19;20978;-76
2022/04/30 05:06:00;;;;;;;3.90;3.00;;;7.80;99.90;;;;;;7373273;19;20316;-78
2022/04/30 05:08:26;;;;;;;3.08;2.65;;;7.90;99.90;;;;;;7376644;19;20438;-76
2022/04/30 05:10:51;;;;;;;4.80;2.60;;;7.90;99.90;;;;;;7369023;19;20356;-75
2022/04/30 05:13:17;;;;;;;3.33;2.55;;;8.10;99.90;;;;;;7373849;19;20815;-75
2022/04/30 05:15:43;;;;;;;6.30;2.80;;;8.10;99.90;;;;;;7374261;19;20329;-80
2022/04/30 05:18:08;;;;;;;4.10;2.70;;;8.20;99.90;;;;;;7375688;19;20705;-78
2022/04/30 05:20:34;;;;;;;4.43;2.90;;;8.20;99.90;;;;;;7371832;19;20317;-78
2022/04/30 05:23:00;;;;;;;5.78;3.00;;;8.30;99.90;;;;;;7370936;19;20389;-75
2022/04/30 05:25:25;;;;;;;3.78;2.83;;;8.40;99.90;;;;;;7372456;19;20348;-76
2022/04/30 05:27:52;;;;;;;4.67;2.70;;;8.40;99.90;;;;;;7376047;19;20304;-74
2022/04/30 05:30:17;;;;;;;3.10;2.80;;;8.50;99.90;;;;;;7372258;19;20344;-77
2022/04/30 05:32:43;;;;;;;3.03;2.65;;;8.60;99.90;;;;;;7368321;19;20328;-75
2022/04/30 05:35:09;;;;;;;4.20;2.80;;;8.60;99.90;;;;;;7373230;19;20355;-75
2022/04/30 05:37:34;;;;;;;4.18;2.78;;;8.70;99.90;;;;;;7373504;19;20339;-77
2022/04/30 05:40:00;;;;;;;4.93;3.53;;;8.90;99.90;;;;;;7371830;19;20329;-75
2022/04/30 05:42:26;;;;;;;3.75;2.95;;;8.70;99.90;;;;;;7347097;19;20348;-75
2022/04/30 05:44:51;;;;;;;5.05;2.95;;;8.80;99.90;;;;;;7374051;19;20976;-77
2022/04/30 05:47:18;;;;;;;4.00;3.30;;;8.80;99.90;;;;;;7376468;19;21061;-79
2022/04/30 05:49:44;;;;;;;3.30;2.85;;;8.80;99.90;;;;;;7374449;19;20441;-76
2022/04/30 05:52:11;;;;;;;3.97;3.00;;;9.00;99.90;;;;;;7370771;19;20428;-75
2022/04/30 05:54:37;;;;;;;4.82;3.00;;;9.00;99.90;;;;;;7373545;19;20340;-79
2022/04/30 05:57:03;;;;;;;3.27;2.97;;;9.10;99.90;;;;;;7371555;19;20353;-75
2022/04/30 05:59:28;;;;;;;3.35;3.05;;;9.30;99.90;;;;;;7372697;19;20815;-75
2022/04/30 06:01:54;;;;;;;3.88;3.40;;;9.30;99.90;;;;;;7366005;19;20341;-76
2022/04/30 06:04:21;;;;;;;5.27;3.10;;;9.50;99.90;;;;;;7372201;19;20349;-79
2022/04/30 06:06:46;;;;;;;3.60;2.75;;;9.60;99.90;;;;;;7372433;19;20354;-75
2022/04/30 06:09:12;;;;;;;5.43;2.97;;;9.60;99.90;;;;;;7373184;19;20712;-78
2022/04/30 06:11:38;;;;;;;4.90;3.28;;;9.70;99.90;;;;;;7367360;19;20670;-82
2022/04/30 06:14:04;;;;;;;3.42;2.90;;;9.90;99.90;;;;;;7370329;19;20332;-75
2022/04/30 06:16:30;;;;;;;3.60;2.97;;;10.00;99.90;;;;;;7364828;19;20369;-74
2022/04/30 06:18:55;;;;;;;3.27;2.97;;;10.10;99.90;;;;;;7373194;19;20309;-76
2022/04/30 06:21:23;;;;;;;4.10;2.97;;;10.30;99.90;;;;;;7347278;19;20368;-77
2022/04/30 06:23:48;;;;;;;4.93;3.08;;;10.30;99.90;;;;;;7369727;19;20359;-76
2022/04/30 06:26:14;;;;;;;5.13;3.23;;;10.50;99.90;;;;;;7372271;19;20827;-75
2022/04/30 06:28:39;;;;;;;4.05;3.42;;;10.60;99.90;;;;;;7372319;19;20466;-76
2022/04/30 06:31:05;;;;;;;4.93;3.37;;;10.80;99.90;;;;;;7367593;19;20680;-75
2022/04/30 06:33:30;;;;;;;3.83;3.20;;;10.90;99.90;;;;;;7371432;19;20324;-75
2022/04/30 06:35:56;;;;;;;5.20;3.30;;;11.00;99.90;;;;;;7370695;19;20830;-78
2022/04/30 06:38:22;;;;;;;4.67;3.47;;;11.10;99.90;;;;;;7372887;19;20355;-76
2022/04/30 06:40:48;;;;;;;4.03;3.00;;;11.20;99.90;;;;;;7367556;19;20344;-76
2022/04/30 06:43:13;;;;;;;4.68;3.10;;;11.40;99.90;;;;;;7371465;19;20404;-75
2022/04/30 06:45:39;;;;;;;3.30;3.00;;;11.50;99.90;;;;;;7376961;19;20430;-75
2022/04/30 06:48:05;;;;;;;5.85;3.53;;;11.70;99.90;;;;;;7379632;19;20394;-75
2022/04/30 06:50:31;;;;;;;5.38;3.60;;;11.80;99.90;;;;;;7374024;19;20347;-76
2022/04/30 06:58:25;;;;;;;3.87;3.40;;;12.10;99.90;;;;;;7378732;19;20377;-75
2022/04/30 07:03:27;;;;;;;5.07;3.53;;;12.50;99.90;;;;;;7378954;19;20377;-78
2022/04/30 07:06:03;;;;;;;5.80;4.03;;;12.70;99.90;;;;;;7376549;19;20328;-75
2022/04/30 07:08:30;;;;;;;5.43;4.10;;;12.90;99.90;;;;;;7380495;19;20351;-78
2022/04/30 07:10:56;;;;;;;9.15;6.82;;;13.10;99.90;;;;;;7373673;19;20347;-74
2022/04/30 07:13:21;;;;;;;7.43;5.15;;;13.10;99.90;;;;;;7376546;19;20332;-76
2022/04/30 07:15:47;;;;;;;5.43;4.13;;;13.10;99.90;;;;;;7375493;19;20356;-77
2022/04/30 07:18:12;;;;;;;6.60;4.47;;;13.20;99.90;;;;;;7380276;19;20349;-79
2022/04/30 07:20:39;;;;;;;5.00;3.87;;;13.30;99.90;;;;;;7373754;19;20634;-75
2022/04/30 07:23:05;;;;;;;6.18;3.97;;;13.50;99.90;;;;;;7376409;19;20345;-77
2022/04/30 07:25:31;;;;;;;5.23;3.90;;;13.60;99.90;;;;;;7377377;19;20349;-75
2022/04/30 07:27:56;;;;;;;3.38;3.08;;;13.80;99.90;;;;;;7380776;19;20347;-77
2022/04/30 07:30:22;;;;;;;4.97;3.50;;;14.00;99.90;;;;;;7375255;19;20342;-78
2022/04/30 07:32:47;;;;;;;4.00;3.40;;;14.00;99.90;;;;;;7375320;19;20340;-76
2022/04/30 07:35:13;;;;;;;3.97;2.97;;;14.10;99.90;;;;;;7375710;19;20319;-78
2022/04/30 07:37:39;;;;;;;4.93;3.42;;;14.20;99.90;;;;;;7379016;19;20316;-76
2022/04/30 07:40:05;;;;;;;6.33;3.27;;;14.30;99.90;;;;;;7375903;19;20336;-77
2022/04/30 07:42:30;;;;;;;4.82;3.25;;;14.50;99.90;;;;;;7376751;19;20337;-79
2022/04/30 07:44:59;;;;;;;3.83;3.20;;;14.70;99.90;;;;;;7375449;19;20677;-76
2022/04/30 07:47:25;;;;;;;3.17;2.83;;;14.80;99.90;;;;;;7378160;19;20959;-74
2022/04/30 07:49:51;;;;;;;6.35;3.38;;;15.00;99.90;;;;;;7377265;19;20332;-77
2022/04/30 07:52:17;;;;;;;6.25;3.03;;;15.10;99.90;;;;;;7375445;19;20317;-76
2022/04/30 07:54:43;;;;;;;3.87;3.07;;;15.20;99.90;;;;;;7374315;19;20408;-74
2022/04/30 07:57:08;;;;;;;3.70;2.85;;;15.30;99.90;;;;;;7373732;19;20337;-74
2022/04/30 07:59:34;;;;;;;3.00;2.60;;;15.40;99.90;;;;;;7373136;19;20312;-74
2022/04/30 08:02:00;;;;;;;4.25;3.30;;;15.50;99.90;;;;;;7370332;19;20349;-75
2022/04/30 08:04:25;;;;;;;5.37;3.20;;;15.60;99.90;;;;;;7376755;19;20698;-74
2022/04/30 08:06:51;;;;;;;3.77;3.13;;;15.60;99.90;;;;;;7375700;19;20428;-75
2022/04/30 08:09:16;;;;;;;3.70;2.90;;;15.70;99.90;;;;;;7375731;19;20686;-74
2022/04/30 08:11:42;;;;;;;4.97;3.27;;;15.80;99.90;;;;;;7371237;19;20339;-74
2022/04/30 08:14:08;;;;;;;4.80;2.90;;;16.00;99.90;;;;;;7372934;19;20382;-74
2022/04/30 08:16:33;;;;;;;3.60;3.07;;;16.10;99.90;;;;;;7374103;19;20362;-74
2022/04/30 08:18:59;;;;;;;3.93;2.90;;;16.30;99.90;;;;;;7377347;19;20361;-74
2022/04/30 08:21:25;;;;;;;4.10;3.22;;;16.40;99.90;;;;;;7368034;19;20349;-73
2022/04/30 08:23:50;;;;;;;5.18;3.20;;;16.60;99.90;;;;;;7374506;19;20365;-73
2022/04/30 08:26:16;;;;;;;3.30;2.73;;;16.70;99.90;;;;;;7375287;19;20336;-73
2022/04/30 08:28:42;;;;;;;5.67;2.87;;;16.80;99.90;;;;;;7379517;19;20443;-73
2022/04/30 08:31:07;;;;;;;3.95;2.72;;;16.90;99.90;;;;;;7368405;19;20364;-73
2022/04/30 08:33:33;;;;;;;2.93;2.63;;;16.90;99.90;;;;;;7373194;19;20356;-74
2022/04/30 08:35:58;;;;;;;4.63;2.80;;;16.90;99.90;;;;;;7374346;19;20685;-74
2022/04/30 08:38:24;;;;;;;3.67;2.78;;;17.00;99.90;;;;;;7376503;19;20431;-75
2022/04/30 08:40:49;;;;;;;3.30;3.00;;;17.10;99.90;;;;;;7369033;19;20352;-73
2022/04/30 08:43:15;;;;;;;3.97;3.00;;;17.20;99.90;;;;;;7376490;19;20364;-74
2022/04/30 08:45:42;;;;;;;3.97;2.90;;;17.30;99.90;;;;;;7373471;19;20393;-74
2022/04/30 08:48:09;;;;;;;3.92;2.80;;;17.50;99.90;;;;;;7377901;19;20337;-75
2022/04/30 08:50:35;;;;;;;3.63;2.60;;;17.50;99.90;;;;;;7371867;19;20332;-74
2022/04/30 08:53:01;;;;;;;4.10;2.90;;;17.80;99.90;;;;;;7373795;19;20365;-74
2022/04/30 08:55:26;;;;;;;3.87;2.60;;;17.90;99.90;;;;;;7374052;19;20356;-74
2022/04/30 08:57:52;;;;;;;3.47;2.80;;;18.10;99.90;;;;;;7373558;19;20357;-74
2022/04/30 09:00:19;;;;;;;3.40;3.07;;;18.20;99.90;;;;;;7370227;19;20348;-74
2022/04/30 09:02:52;;;;;;;3.50;2.53;;;18.20;99.90;;;;;;7370873;19;20411;-73
2022/04/30 09:05:18;;;;;;;3.97;2.63;;;18.30;99.90;;;;;;7374463;19;20320;-74
2022/04/30 09:07:52;;;;;;;2.70;2.50;;;18.50;99.90;;;;;;7377828;19;20377;-74
2022/04/30 09:10:24;;;;;;;5.83;2.83;;;18.60;99.90;;;;;;7372726;19;20365;-75
2022/04/30 09:12:51;;;;;;;3.67;2.97;;;18.60;99.10;;;;;;7368882;19;20736;-75
2022/04/30 09:15:17;;;;;;;3.05;2.75;;;18.60;98.70;;;;;;7373709;19;20443;-76
2022/04/30 09:17:42;;;;;;;4.15;3.00;;;18.80;99.10;;;;;;7376280;19;20480;-73
2022/04/30 09:20:16;;;;;;;5.00;2.70;;;18.90;98.60;;;;;;7372982;19;20381;-73
2022/04/30 09:22:42;;;;;;;3.75;2.90;;;19.20;98.50;;;;;;7369744;19;20383;-73
2022/04/30 09:25:16;;;;;;;3.00;2.70;;;19.40;97.50;;;;;;7372146;19;20339;-74
2022/04/30 09:27:49;;;;;;;4.82;2.60;;;19.50;95.50;;;;;;7373349;19;20384;-74
2022/04/30 09:30:20;;;;;;;3.65;2.90;;;19.60;96.60;;;;;;7371639;19;20956;-74
2022/04/30 09:32:51;;;;;;;3.20;2.70;;;19.70;94.90;;;;;;7367875;19;20317;-74
2022/04/30 09:38:04;;;;;;;2.65;2.40;;;20.00;92.20;;;;;;7373370;19;20369;-74
2022/04/30 09:40:30;;;;;;;2.67;2.30;;;20.10;91.40;;;;;;7370260;19;20361;-75
2022/04/30 09:42:56;;;;;;;2.92;2.60;;;20.20;90.60;;;;;;7370992;19;20332;-73
2022/04/30 09:45:25;;;;;;;3.63;2.23;;;20.40;90.80;;;;;;7370439;19;20349;-74
2022/04/30 09:47:51;;;;;;;6.68;2.47;;;20.70;90.50;;;;;;7376075;19;21025;-73
2022/04/30 09:55:53;;;;;;;3.95;2.08;;;21.00;84.50;;;;;;7268871;19;2004337;-74
2022/04/30 09:58:26;;;;;;;2.42;2.03;;;21.40;82.50;;;;;;7376831;19;20369;-75
2022/04/30 10:00:57;;;;;;;2.53;2.00;;;21.60;79.00;;;;;;7266483;19;2004623;-74
2022/04/30 10:03:25;;;;;;;2.53;2.13;;;21.70;76.70;;;;;;7372483;19;20940;-74
2022/04/30 10:05:54;;;;;;;2.73;2.47;;;21.80;75.70;;;;;;7370973;19;20349;-74
2022/04/30 10:08:20;;;;;;;2.72;2.15;;;21.90;74.60;;;;;;7372678;19;20361;-75
2022/04/30 10:10:50;;;;;;;3.37;2.33;;;21.80;74.00;;;;;;7369060;19;20352;-74
2022/04/30 10:13:29;;;;;;;2.28;2.08;;;21.70;75.60;;;;;;7371750;19;20793;-75
2022/04/30 10:15:57;;;;;;;3.20;2.10;;;21.90;75.10;;;;;;7369856;19;20357;-73
2022/04/30 10:18:33;;;;;;;2.65;2.38;;;21.90;74.30;;;;;;7372839;19;20360;-74
2022/04/30 10:21:00;;;;;;;2.50;1.90;;;21.70;70.20;;;;;;7365346;19;20921;-75
2022/04/30 10:23:26;;;;;;;3.15;2.05;;;21.60;69.40;;;;;;7372625;19;20325;-74
2022/04/30 10:25:53;;;;;;;2.30;1.90;;;21.70;71.60;;;;;;7369797;19;20319;-75
2022/04/30 10:28:22;;;;;;;2.95;2.08;;;21.90;69.60;;;;;;7373927;19;20325;-74
2022/04/30 10:31:09;;;;;;;2.08;1.88;;;21.90;68.50;;;;;;7369052;19;20419;-74
2022/04/30 10:33:34;;;;;;;5.00;2.00;;;22.20;68.40;;;;;;7267914;19;2004258;-75
2022/04/30 10:36:08;;;;;;;2.05;1.83;;;22.30;66.70;;;;;;7371819;19;20335;-74
2022/04/30 10:38:33;;;;;;;3.30;1.87;;;22.40;66.60;;;;;;7374312;19;20360;-74
2022/04/30 10:41:01;;;;;;;2.95;1.90;;;22.50;65.10;;;;;;7366056;19;20886;-74
2022/04/30 10:43:34;;;;;;;2.95;1.70;;;22.50;64.00;;;;;;7372147;19;20331;-74
2022/04/30 10:46:00;;;;;;;2.35;2.15;;;22.70;61.90;;;;;;7371215;19;20387;-74
2022/04/30 10:48:26;;;;;;;3.10;2.22;;;22.70;58.10;;;;;;7373993;19;20442;-73
2022/04/30 10:51:05;;;;;;;2.47;1.77;;;22.30;58.90;;;;;;7367667;19;20766;-73
2022/04/30 10:53:30;;;;;;;2.47;2.05;;;22.20;60.10;;;;;;7269130;19;2004326;-73
2022/04/30 10:55:56;;;;;;;1.40;1.30;;;22.00;59.20;;;;;;7370543;19;20355;-74
2022/04/30 10:58:23;;;;;;;1.92;1.70;;;22.20;60.00;;;;;;7374484;19;20680;-74
2022/04/30 11:00:48;;;;;;;2.28;1.63;;;22.30;60.40;;;;;;7361341;19;20347;-74
2022/04/30 11:03:14;;;;;;;1.65;1.40;;;22.20;54.90;;;;;;7370392;19;20356;-74
2022/04/30 11:05:40;;;;;;;2.10;1.30;;;22.20;56.20;;;;;;7369430;19;20477;-77
2022/04/30 11:08:06;;;;;;;2.03;1.42;;;22.30;57.80;;;;;;7370335;19;20382;-80
2022/04/30 11:10:32;;;;;;;1.40;1.30;;;22.50;57.00;;;;;;7364060;19;20895;-81
2022/04/30 11:13:05;;;;;;;1.53;1.20;;;22.40;54.70;;;;;;7370602;19;20379;-78
2022/04/30 11:15:36;;;;;;;1.85;1.50;;;22.00;52.50;;;;;;7374223;19;20742;-84
2022/04/30 11:18:02;;;;;;;4.35;1.45;;;21.70;54.80;;;;;;7374318;19;20304;-80
2022/04/30 11:20:28;;;;;;;2.17;1.60;;;21.70;57.20;;;;;;7374434;19;20352;-85
2022/04/30 11:22:57;;;;;;;1.60;1.50;;;21.70;57.00;;;;;;7375644;19;20400;-81
2022/04/30 11:25:32;;;;;;;2.75;1.80;;;21.60;57.70;;;;;;7372659;19;20308;-80
2022/04/30 11:27:58;;;;;;;1.60;1.50;;;21.80;54.80;;;;;;7371834;19;20304;-79
2022/04/30 11:30:24;;;;;;;2.03;1.60;;;21.90;56.40;;;;;;7354479;19;20363;-78
2022/04/30 11:32:50;;;;;;;1.33;1.23;;;21.90;56.20;;;;;;7375836;19;20358;-77
2022/04/30 11:35:19;;;;;;;1.37;1.20;;;21.70;55.10;;;;;;7377205;19;20350;-77
2022/04/30 11:37:45;;;;;;;2.20;1.42;;;21.80;55.40;;;;;;7377703;19;20416;-78
2022/04/30 11:40:11;;;;;;;1.83;1.40;;;21.80;55.90;;;;;;7373843;19;20416;-78
2022/04/30 11:42:37;;;;;;;3.03;1.63;;;21.60;56.50;;;;;;7378640;19;20504;-77
2022/04/30 11:45:03;;;;;;;1.15;1.15;;;21.70;55.80;;;;;;7377303;19;20880;-78
2022/04/30 11:47:28;;;;;;;1.47;1.37;;;21.70;55.10;;;;;;7369300;19;20321;-79
2022/04/30 11:50:08;;;;;;;1.65;1.40;;;21.70;56.10;;;;;;7372583;19;20349;-80
2022/04/30 11:52:34;;;;;;;1.33;1.23;;;22.00;56.40;;;;;;7375822;19;20883;-78
2022/04/30 11:55:06;;;;;;;1.70;1.57;;;22.10;55.30;;;;;;7376416;19;20362;-78
2022/04/30 11:57:34;;;;;;;1.30;1.20;;;21.70;53.90;;;;;;7376521;19;20416;-78
2022/04/30 12:00:00;;;;;;;2.47;1.35;;;21.40;53.00;;;;;;7368376;19;21105;-77
2022/04/30 12:02:31;;;;;;;1.65;1.55;;;21.60;54.90;;;;;;7374474;19;20386;-79
2022/04/30 12:05:03;;;;;;;1.73;1.45;;;21.70;54.20;;;;;;7374654;19;20357;-78
2022/04/30 12:07:39;;;;;;;1.50;1.40;;;21.80;54.80;;;;;;7377925;19;20387;-76
2022/04/30 12:10:15;;;;;;;1.88;1.50;;;21.80;52.90;;;;;;7267824;19;2004562;-77
2022/04/30 12:12:40;;;;;;;5.47;2.08;;;22.00;54.20;;;;;;7271509;19;2017953;-77
2022/04/30 12:15:16;;;;;;;2.22;1.60;;;22.20;54.70;;;;;;7373495;19;20455;-77
2022/04/30 12:17:41;;;;;;;2.60;1.40;;;22.20;54.20;;;;;;7377162;19;20348;-77
2022/04/30 12:25:49;;;;;;;2.50;1.50;;;22.60;53.20;;;;;;7275847;19;2004521;-76
2022/04/30 12:28:15;;;;;;;1.75;1.50;;;22.60;50.30;;;;;;7374650;19;20329;-80
2022/04/30 12:30:54;;;;;;;1.38;1.27;;;22.60;51.00;;;;;;7368745;19;21626;-81
2022/04/30 12:33:23;;;;;;;1.77;1.50;;;22.60;52.10;;;;;;7373735;19;20348;-77
2022/04/30 12:35:56;;;;;;;1.60;1.50;;;22.50;50.90;;;;;;7373731;19;20923;-77
2022/04/30 12:38:21;;;;;;;2.10;1.90;;;22.70;53.70;;;;;;7374937;19;20957;-79
2022/04/30 12:40:47;;;;;;;2.30;1.83;;;22.60;50.90;;;;;;7367342;19;20355;-78
2022/04/30 12:43:16;;;;;;;1.90;1.67;;;22.40;50.50;;;;;;7373647;19;20360;-77
2022/04/30 12:45:45;;;;;;;2.72;1.70;;;22.40;51.40;;;;;;7372950;19;20420;-77
2022/04/30 12:48:11;;;;;;;2.42;1.60;;;22.50;52.30;;;;;;7407935;19;20375;-89
2022/04/30 12:50:38;;;;;;;1.63;1.52;;;22.70;51.80;;;;;;7402933;19;20393;-88
2022/04/30 12:53:09;;;;;;;1.75;1.65;;;22.70;50.70;;;;;;7411496;19;20340;-92
2022/04/30 12:55:41;;;;;;;2.00;1.60;;;23.00;51.70;;;;;;7406697;19;20357;-90
2022/04/30 12:58:07;;;;;;;2.00;1.80;;;23.20;50.50;;;;;;7415356;19;20362;-89
2022/04/30 13:00:33;;;;;;;2.58;1.73;;;23.60;50.00;;;;;;7409213;19;20316;-89
2022/04/30 13:03:00;;;;;;;1.70;1.60;;;23.90;50.10;;;;;;7411820;19;20351;-91
2022/04/30 13:05:27;;;;;;;1.77;1.50;;;24.50;51.00;;;;;;7404199;19;20344;-88
2022/04/30 13:07:52;;;;;;;2.10;1.77;;;24.40;48.60;;;;;;7413831;19;20329;-86
2022/04/30 13:16:10;;;;;;;1.77;1.60;;;24.00;49.40;;;;;;7207275;19;2004191;-90
2022/04/30 13:18:36;;;;;;;1.70;1.60;;;23.90;48.40;;;;;;7412980;19;20332;-88
2022/04/30 13:21:16;;;;;;;1.77;1.63;;;23.60;47.80;;;;;;7410969;19;20329;-91
2022/04/30 13:23:42;;;;;;;4.22;1.77;;;23.50;46.30;;;;;;7413364;19;20325;-89
2022/04/30 13:26:11;;;;;;;1.70;1.60;;;23.00;47.70;;;;;;7414589;19;20342;-90
2022/04/30 13:28:45;;;;;;;1.88;1.70;;;23.10;49.10;;;;;;7391253;19;20325;-90
2022/04/30 13:31:11;;;;;;;1.90;1.80;;;23.40;50.10;;;;;;7375080;19;20451;-79
2022/04/30 13:33:37;;;;;;;1.53;1.43;;;23.50;47.20;;;;;;7379050;19;20411;-80
2022/04/30 13:36:02;;;;;;;1.60;1.50;;;23.90;49.00;;;;;;7373000;19;20829;-78
2022/04/30 13:38:28;;;;;;;1.92;1.73;;;23.90;47.10;;;;;;7380255;19;20388;-83
2022/04/30 13:40:54;;;;;;;1.80;1.70;;;24.30;48.80;;;;;;7376824;19;20312;-81